Terminal Aerodrome Forecast
Issued by NWS

Home | Current Version | Previous Version | Graphics & Text | Print | Product List | Glossary On
Versions: 1 2 3 4 5 6 7 8 9 10 11 12 13 14 15 16 17
000
FTUS43 KTOP 142320
TAFMHK
TAF
KMHK 142320Z 1500/1524 22007KT P6SM BKN060
     FM150300 31007KT 3SM -SN OVC015
     FM150900 34011G18KT P6SM BKN030
     FM151600 34013G23KT P6SM BKN030=

USA.gov is the U.S. government's official web portal to all federal, state and local government web resources and services.